Aérodrome :
LOGIN :

S'inscrire | Disclaimer

   EN    FR    IT 

 










Légende :    VFR   VFR Marginal   IFR   IFR Intensif   IFR Très Intensif
Visi : 
Plafond : 
>= 8 km
>= 3000ft
5 à 8 km
1000 à 3000 ft
1500m à 5 km
500 à 1000 ft
800 à 1500m
200 à 500 ft
< 800m
< 200 ft
Symboles :   Orages  Brouillard  Fortes neiges  Fortes précipitations  Vent > 20 kt
SIGMETs :   Divers  Orages  Givrage  Turbulence  Onde Orograph.  Cendres Volcan.






- Altitude de l'aérodrome : 49 ft
- Code IATA : SEN


EGMC - Southend

DERNIER METAR :
  • 180550Z 35009KT 9999 FEW020 BKN033 06/04 Q1013

METARs EXPIRÉS :
  • 180520Z 33008KT 9999 FEW018 SCT035 06/04 Q1012
  • 180450Z 33009KT 9999 FEW014 SCT032 BKN040 06/05 Q1012
  • 180420Z 34012KT 9999 FEW014 BKN027 06/05 Q1012
  • 180350Z 33009KT 9999 FEW018 BKN028 07/06 Q1012

TAF TAF EGMC
Valide du 18 à 06h jusqu'au 18 à 15h UTC


180454Z 1806/1815 34012KT 9999 FEW030
PROB30
TEMPO 1808/1811 BKN012



MET'MAP, la Météo Aéronautique d'un coup d'oeil ! - Copyright ORBIFLY Décembre 2007 - Disclaimer

ORBIFLY MET'MAP TEAM :

Programmation & Développement : Alexandra Zaïnal
Conception & Développement : Baudouin d'Aumeries
Co-Programmation & Développement : Marc-Olivier Méhu
Soutien technique & logistique : Manuel Goepfert

Contact : metmap@orbifly.com




SOURCES & CREDITS :

   NOAA